Buoy 32622

sailwx.info

Track history (hours):
 
Tides and Currents Weather Stations Pressure Air Temp Water Temp Dewpoint Dewpoint Depression Visibility Wind Speed Wind Dir Waves Ship Positions

Aadnyj

Last reported at 2018-Mar-28 16:00 UTC. Time now 2018-Apr-24 14:39 UTC.
Position S 19°21' E 169°16'.
Warning: this ship's position is 26 days out of date.

Length 56 m.

Type: Towing. MMSI: 413600286.

Water temperature 24.8 ° C

Date/timePositionNaut miles runAvg speedWind from/ knotsBaromVisibWave heightAir tempDewpointWater temp
2018-Mar-28 16:00S 19°21' E 169°16'0 0.0 24.8
2018-Mar-28 10:00S 19°21' E 169°16'1 0.6 26.2
2018-Mar-28 09:00S 19°21' E 169°15'0 0.0 26.4
2018-Mar-28 08:00S 19°21' E 169°15'1 0.6 26.6
2018-Mar-28 07:00S 19°21' E 169°16'0 0.0 26.7
2018-Mar-28 06:00S 19°21' E 169°16'1 0.6 27.4
2018-Mar-28 05:00S 19°22' E 169°16'1 0.3 27.7
2018-Mar-28 03:00S 19°21' E 169°16'1 0.1 27.7
2018-Mar-27 21:00S 19°21' E 169°15'2 0.8 25.3
2018-Mar-27 19:00S 19°21' E 169°17'0 0.0 24.4
2018-Mar-27 18:00S 19°21' E 169°17'1 0.6 24.7
2018-Mar-27 16:00S 19°21' E 169°16'1 0.1 25.0
2018-Mar-27 10:00S 19°21' E 169°15'0 0.0 26.8
2018-Mar-27 08:00S 19°21' E 169°15'1 0.6 26.5
2018-Mar-27 07:00S 19°21' E 169°16'0 0.0 26.4
2018-Mar-27 06:00S 19°21' E 169°16'0 0.0 26.9
2018-Mar-27 05:00S 19°21' E 169°16'1 0.6 26.8
2018-Mar-27 04:00S 19°21' E 169°15'1 0.8 27.2
2018-Mar-27 03:00S 19°20' E 169°14'1 0.1 28.4
2018-Mar-26 06:00S 19°21' E 169°16'1 0.6 26.7
2018-Mar-26 04:00S 19°20' E 169°14'0 0.0 26.8
2018-Mar-26 03:00S 19°20' E 169°14'1 0.2 26.6
2018-Mar-25 20:00S 19°21' E 169°16'1 1.3 25.6
2018-Mar-25 19:00S 19°20' E 169°16'1 0.7 25.4
2018-Mar-25 17:00S 19°21' E 169°16'2 0.3 25.6
2018-Mar-25 10:00S 19°20' E 169°17'2 1.8 25.0
2018-Mar-25 09:00S 19°21' E 169°16'1 1.1 24.7
2018-Mar-25 08:00S 19°21' E 169°14'0 0.0 24.4
2018-Mar-25 07:00S 19°21' E 169°14'1 0.6 25.2
2018-Mar-25 06:00S 19°21' E 169°15'0 0.0 25.4
2018-Mar-25 05:00S 19°21' E 169°15'1 0.6 25.8
2018-Mar-25 04:00S 19°21' E 169°16'0 0.0 25.8
2018-Mar-25 03:00S 19°21' E 169°16'0 0.0 25.8
2018-Mar-24 22:00S 19°21' E 169°16'0 0.0 25.2
2018-Mar-24 21:00S 19°21' E 169°16'1 1.3 25.0
2018-Mar-24 20:00S 19°20' E 169°17'0 0.0 25.4
2018-Mar-24 19:00S 19°20' E 169°17'1 1.3 25.9
2018-Mar-24 18:00S 19°21' E 169°16'0 0.0 25.9
2018-Mar-24 17:00S 19°21' E 169°16'2 0.2 25.8
2018-Mar-24 10:00S 19°21' E 169°17'2 1.7 25.4
2018-Mar-24 09:00S 19°21' E 169°16'0 0.0 25.7
2018-Mar-24 08:00S 19°21' E 169°16'1 0.3 25.7
2018-Mar-24 06:00S 19°21' E 169°16'1 1.1 26.4
2018-Mar-24 05:00S 19°21' E 169°15'1 0.6 27.2
2018-Mar-24 04:00S 19°21' E 169°16'1 0.1 27.1
2018-Mar-23 22:00S 19°21' E 169°15'2 0.6 26.0
2018-Mar-23 19:00S 19°22' E 169°13'0 0.0 25.1
2018-Mar-23 18:00S 19°22' E 169°13'2 2.3 24.7
2018-Mar-23 17:00S 19°21' E 169°16'0 0.0 24.9
2018-Mar-23 16:00S 19°21' E 169°16'0 0.0 25.3
2018-Mar-23 15:00S 19°21' E 169°16'1 0.1 26.4
2018-Mar-23 10:00S 19°21' E 169°15'0 0.0 27.1
2018-Mar-23 09:00S 19°21' E 169°15'0 0.0 27.2
2018-Mar-23 08:00S 19°21' E 169°15'1 0.8 27.4
2018-Mar-23 07:00S 19°20' E 169°14'0 0.0 27.9
2018-Mar-23 06:00S 19°20' E 169°14'1 0.6 28.8
2018-Mar-23 04:00S 19°21' E 169°16'0 0.0 30.2
2018-Mar-22 20:00S 19°21' E 169°16'0 0.0 25.8
2018-Mar-22 19:00S 19°21' E 169°16'0 0.0 25.6
2018-Mar-22 18:00S 19°21' E 169°16'0 0.0 25.6
2018-Mar-22 16:00S 19°21' E 169°16'0 0.0 25.8
2018-Mar-22 15:00S 19°21' E 169°16'0 0.0 26.0
2018-Mar-22 10:00S 19°21' E 169°16'1 1.3 26.0
2018-Mar-22 09:00S 19°20' E 169°14'0 0.0 26.3
2018-Mar-22 07:00S 19°20' E 169°14'1 0.6 27.2
2018-Mar-22 06:00S 19°21' E 169°14'0 0.0 28.0
2018-Mar-22 05:00S 19°21' E 169°14'0 0.0 28.3
2018-Mar-22 04:00S 19°21' E 169°14'1 0.1 28.1
2018-Mar-21 22:00S 19°21' E 169°15'1 0.3 27.2
2018-Mar-21 20:00S 19°21' E 169°16'1 1.3 25.4
2018-Mar-21 19:00S 19°20' E 169°17'0 0.0 25.2
2018-Mar-21 18:00S 19°20' E 169°17'2 2.3 25.0
2018-Mar-21 17:00S 19°21' E 169°14'0 0.0 24.8
2018-Mar-21 16:00S 19°21' E 169°14'1 0.1 24.9
2018-Mar-21 11:00S 19°22' E 169°14'1 1.3 26.0
2018-Mar-21 10:00S 19°21' E 169°16'0 0.0 26.1
2018-Mar-21 09:00S 19°21' E 169°16'1 0.4 26.3
2018-Mar-21 07:00S 19°20' E 169°16'0 0.0 27.6
2018-Mar-21 06:00S 19°20' E 169°16'2 1.7 28.4
2018-Mar-21 05:00S 19°20' E 169°14'0 0.0 28.1
2018-Mar-21 04:00S 19°20' E 169°14'1 0.1 28.2
2018-Mar-20 22:00S 19°21' E 169°15'1 0.6 25.3
2018-Mar-20 21:00S 19°21' E 169°16'0 0.0 23.8
2018-Mar-20 20:00S 19°21' E 169°16'1 0.6 22.8
2018-Mar-20 19:00S 19°21' E 169°15'0 0.0 22.7
2018-Mar-20 18:00S 19°21' E 169°15'0 0.0 22.3
2018-Mar-20 16:00S 19°21' E 169°15'1 0.1 22.9
2018-Mar-20 11:00S 19°21' E 169°16'1 0.8 24.1
2018-Mar-20 10:00S 19°20' E 169°16'1 1.1 24.3
2018-Mar-20 09:00S 19°20' E 169°15'0 0.0 24.8
2018-Mar-20 06:00S 19°20' E 169°15'1 0.1 26.8
2018-Mar-19 22:00S 19°21' E 169°16'1 1.1 25.4
2018-Mar-19 21:00S 19°21' E 169°14'1 1.1 24.0
2018-Mar-19 20:00S 19°21' E 169°16'0 0.0 22.4
2018-Mar-19 19:00S 19°21' E 169°16'1 0.2 22.3
2018-Mar-19 16:00S 19°21' E 169°15'1 0.1 22.1
2018-Mar-19 10:00S 19°21' E 169°16'0 0.0 24.1
2018-Mar-19 09:00S 19°21' E 169°16'0 0.0 24.5
2018-Mar-19 08:00S 19°21' E 169°16'1 1.3 24.9
2018-Mar-19 07:00S 19°20' E 169°14'0 0.0 26.1
2018-Mar-19 06:00S 19°20' E 169°14'1 0.8 26.8
2018-Mar-19 05:00S 19°21' E 169°15'1 0.3 27.3
2018-Mar-19 03:00S 19°21' E 169°16'0 0.0 28.9
2018-Mar-18 19:00S 19°21' E 169°16'1 1.3 24.8
2018-Mar-18 18:00S 19°20' E 169°17'1 1.3 24.7
2018-Mar-18 17:00S 19°21' E 169°16'0 0.0 24.2
2018-Mar-18 16:00S 19°21' E 169°16'   24.1
Track history (hours):
 
Tides and Currents Weather Stations Pressure Air Temp Water Temp Dewpoint Dewpoint Depression Visibility Wind Speed Wind Dir Waves Ship Positions

Aadnyj

Last reported at 2018-Mar-28 16:00 UTC. Time now 2018-Apr-24 14:39 UTC.
Position S 19°21' E 169°16'.
Warning: this ship's position is 26 days out of date.

Length 56 m.

Type: Towing. MMSI: 413600286.

Water temperature 24.8 ° C

Date/timePositionNaut miles runAvg speedWind from/ knotsBaromVisibWave heightAir tempDewpointWater temp
2018-Mar-28 16:00S 19°21' E 169°16'0 0.0 24.8
2018-Mar-28 10:00S 19°21' E 169°16'1 0.6 26.2
2018-Mar-28 09:00S 19°21' E 169°15'0 0.0 26.4
2018-Mar-28 08:00S 19°21' E 169°15'1 0.6 26.6
2018-Mar-28 07:00S 19°21' E 169°16'0 0.0 26.7
2018-Mar-28 06:00S 19°21' E 169°16'1 0.6 27.4
2018-Mar-28 05:00S 19°22' E 169°16'1 0.3 27.7
2018-Mar-28 03:00S 19°21' E 169°16'1 0.1 27.7
2018-Mar-27 21:00S 19°21' E 169°15'2 0.8 25.3
2018-Mar-27 19:00S 19°21' E 169°17'0 0.0 24.4
2018-Mar-27 18:00S 19°21' E 169°17'1 0.6 24.7
2018-Mar-27 16:00S 19°21' E 169°16'1 0.1 25.0
2018-Mar-27 10:00S 19°21' E 169°15'0 0.0 26.8
2018-Mar-27 08:00S 19°21' E 169°15'1 0.6 26.5
2018-Mar-27 07:00S 19°21' E 169°16'0 0.0 26.4
2018-Mar-27 06:00S 19°21' E 169°16'0 0.0 26.9
2018-Mar-27 05:00S 19°21' E 169°16'1 0.6 26.8
2018-Mar-27 04:00S 19°21' E 169°15'1 0.8 27.2
2018-Mar-27 03:00S 19°20' E 169°14'1 0.1 28.4
2018-Mar-26 06:00S 19°21' E 169°16'1 0.6 26.7
2018-Mar-26 04:00S 19°20' E 169°14'0 0.0 26.8
2018-Mar-26 03:00S 19°20' E 169°14'1 0.2 26.6
2018-Mar-25 20:00S 19°21' E 169°16'1 1.3 25.6
2018-Mar-25 19:00S 19°20' E 169°16'1 0.7 25.4
2018-Mar-25 17:00S 19°21' E 169°16'2 0.3 25.6
2018-Mar-25 10:00S 19°20' E 169°17'2 1.8 25.0
2018-Mar-25 09:00S 19°21' E 169°16'1 1.1 24.7
2018-Mar-25 08:00S 19°21' E 169°14'0 0.0 24.4
2018-Mar-25 07:00S 19°21' E 169°14'1 0.6 25.2
2018-Mar-25 06:00S 19°21' E 169°15'0 0.0 25.4
2018-Mar-25 05:00S 19°21' E 169°15'1 0.6 25.8
2018-Mar-25 04:00S 19°21' E 169°16'0 0.0 25.8
2018-Mar-25 03:00S 19°21' E 169°16'0 0.0 25.8
2018-Mar-24 22:00S 19°21' E 169°16'0 0.0 25.2
2018-Mar-24 21:00S 19°21' E 169°16'1 1.3 25.0
2018-Mar-24 20:00S 19°20' E 169°17'0 0.0 25.4
2018-Mar-24 19:00S 19°20' E 169°17'1 1.3 25.9
2018-Mar-24 18:00S 19°21' E 169°16'0 0.0 25.9
2018-Mar-24 17:00S 19°21' E 169°16'2 0.2 25.8
2018-Mar-24 10:00S 19°21' E 169°17'2 1.7 25.4
2018-Mar-24 09:00S 19°21' E 169°16'0 0.0 25.7
2018-Mar-24 08:00S 19°21' E 169°16'1 0.3 25.7
2018-Mar-24 06:00S 19°21' E 169°16'1 1.1 26.4
2018-Mar-24 05:00S 19°21' E 169°15'1 0.6 27.2
2018-Mar-24 04:00S 19°21' E 169°16'1 0.1 27.1
2018-Mar-23 22:00S 19°21' E 169°15'2 0.6 26.0
2018-Mar-23 19:00S 19°22' E 169°13'0 0.0 25.1
2018-Mar-23 18:00S 19°22' E 169°13'2 2.3 24.7
2018-Mar-23 17:00S 19°21' E 169°16'0 0.0 24.9
2018-Mar-23 16:00S 19°21' E 169°16'0 0.0 25.3
2018-Mar-23 15:00S 19°21' E 169°16'1 0.1 26.4
2018-Mar-23 10:00S 19°21' E 169°15'0 0.0 27.1
2018-Mar-23 09:00S 19°21' E 169°15'0 0.0 27.2
2018-Mar-23 08:00S 19°21' E 169°15'1 0.8 27.4
2018-Mar-23 07:00S 19°20' E 169°14'0 0.0 27.9
2018-Mar-23 06:00S 19°20' E 169°14'1 0.6 28.8
2018-Mar-23 04:00S 19°21' E 169°16'0 0.0 30.2
2018-Mar-22 20:00S 19°21' E 169°16'0 0.0 25.8
2018-Mar-22 19:00S 19°21' E 169°16'0 0.0 25.6
2018-Mar-22 18:00S 19°21' E 169°16'0 0.0 25.6
2018-Mar-22 16:00S 19°21' E 169°16'0 0.0 25.8
2018-Mar-22 15:00S 19°21' E 169°16'0 0.0 26.0
2018-Mar-22 10:00S 19°21' E 169°16'1 1.3 26.0
2018-Mar-22 09:00S 19°20' E 169°14'0 0.0 26.3
2018-Mar-22 07:00S 19°20' E 169°14'1 0.6 27.2
2018-Mar-22 06:00S 19°21' E 169°14'0 0.0 28.0
2018-Mar-22 05:00S 19°21' E 169°14'0 0.0 28.3
2018-Mar-22 04:00S 19°21' E 169°14'1 0.1 28.1
2018-Mar-21 22:00S 19°21' E 169°15'1 0.3 27.2
2018-Mar-21 20:00S 19°21' E 169°16'1 1.3 25.4
2018-Mar-21 19:00S 19°20' E 169°17'0 0.0 25.2
2018-Mar-21 18:00S 19°20' E 169°17'2 2.3 25.0
2018-Mar-21 17:00S 19°21' E 169°14'0 0.0 24.8
2018-Mar-21 16:00S 19°21' E 169°14'1 0.1 24.9
2018-Mar-21 11:00S 19°22' E 169°14'1 1.3 26.0
2018-Mar-21 10:00S 19°21' E 169°16'0 0.0 26.1
2018-Mar-21 09:00S 19°21' E 169°16'1 0.4 26.3
2018-Mar-21 07:00S 19°20' E 169°16'0 0.0 27.6
2018-Mar-21 06:00S 19°20' E 169°16'2 1.7 28.4
2018-Mar-21 05:00S 19°20' E 169°14'0 0.0 28.1
2018-Mar-21 04:00S 19°20' E 169°14'1 0.1 28.2
2018-Mar-20 22:00S 19°21' E 169°15'1 0.6 25.3
2018-Mar-20 21:00S 19°21' E 169°16'0 0.0 23.8
2018-Mar-20 20:00S 19°21' E 169°16'1 0.6 22.8
2018-Mar-20 19:00S 19°21' E 169°15'0 0.0 22.7
2018-Mar-20 18:00S 19°21' E 169°15'0 0.0 22.3
2018-Mar-20 16:00S 19°21' E 169°15'1 0.1 22.9
2018-Mar-20 11:00S 19°21' E 169°16'1 0.8 24.1
2018-Mar-20 10:00S 19°20' E 169°16'1 1.1 24.3
2018-Mar-20 09:00S 19°20' E 169°15'0 0.0 24.8
2018-Mar-20 06:00S 19°20' E 169°15'1 0.1 26.8
2018-Mar-19 22:00S 19°21' E 169°16'1 1.1 25.4
2018-Mar-19 21:00S 19°21' E 169°14'1 1.1 24.0
2018-Mar-19 20:00S 19°21' E 169°16'0 0.0 22.4
2018-Mar-19 19:00S 19°21' E 169°16'1 0.2 22.3
2018-Mar-19 16:00S 19°21' E 169°15'1 0.1 22.1
2018-Mar-19 10:00S 19°21' E 169°16'0 0.0 24.1
2018-Mar-19 09:00S 19°21' E 169°16'0 0.0 24.5
2018-Mar-19 08:00S 19°21' E 169°16'1 1.3 24.9
2018-Mar-19 07:00S 19°20' E 169°14'0 0.0 26.1
2018-Mar-19 06:00S 19°20' E 169°14'1 0.8 26.8
2018-Mar-19 05:00S 19°21' E 169°15'1 0.3 27.3
2018-Mar-19 03:00S 19°21' E 169°16'0 0.0 28.9
2018-Mar-18 19:00S 19°21' E 169°16'1 1.3 24.8
2018-Mar-18 18:00S 19°20' E 169°17'1 1.3 24.7
2018-Mar-18 17:00S 19°21' E 169°16'0 0.0 24.2
2018-Mar-18 16:00S 19°21' E 169°16'   24.1

Dump ship's entire track history